createdAt,value
2019-04-02T00:01:55.780Z,8.60
2019-04-02T00:04:27.638Z,8.50
2019-04-02T00:07:00.340Z,8.50
2019-04-02T00:09:32.711Z,8.50
2019-04-02T00:12:04.541Z,8.50
2019-04-02T00:14:36.403Z,8.50
2019-04-02T00:17:10.217Z,8.40
2019-04-02T00:19:42.181Z,8.50
2019-04-02T00:22:13.996Z,8.50
2019-04-02T00:24:45.871Z,8.50
2019-04-02T00:27:17.946Z,8.40
2019-04-02T00:29:50.158Z,8.40
2019-04-02T00:32:21.949Z,8.40
2019-04-02T00:34:54.095Z,8.30
2019-04-02T00:37:26.676Z,8.30
2019-04-02T00:39:58.847Z,8.30
2019-04-02T00:42:30.661Z,8.30
2019-04-02T00:45:02.547Z,8.30
2019-04-02T00:47:34.404Z,8.30
2019-04-02T00:50:08.133Z,8.30
2019-04-02T00:52:39.943Z,8.30
2019-04-02T00:55:12.074Z,8.30
2019-04-02T00:57:44.205Z,8.20
2019-04-02T01:00:18.420Z,8.10
2019-04-02T01:02:50.818Z,8.20
2019-04-02T01:05:22.685Z,8.20
2019-04-02T01:07:54.607Z,8.20
2019-04-02T01:10:26.485Z,8.20
2019-04-02T01:12:58.616Z,8.20
2019-04-02T01:15:30.747Z,8.20
2019-04-02T01:18:02.838Z,8.10
2019-04-02T01:20:34.690Z,8.10
2019-04-02T01:23:06.797Z,8.10
2019-04-02T01:25:38.601Z,8.10
2019-04-02T01:28:10.554Z,8.20
2019-04-02T01:30:42.353Z,8.10
2019-04-02T01:33:14.193Z,8.00
2019-04-02T01:35:46.002Z,7.90
2019-04-02T01:38:18.108Z,7.90
2019-04-02T01:40:49.891Z,7.90
2019-04-02T01:43:22.120Z,7.90
2019-04-02T01:45:53.951Z,7.90
2019-04-02T01:48:26.093Z,7.80
2019-04-02T01:50:58.200Z,7.80
2019-04-02T01:53:30.431Z,7.80
2019-04-02T01:56:02.436Z,7.90
2019-04-02T01:58:34.381Z,7.80
2019-04-02T02:01:06.444Z,7.70
2019-04-02T02:03:38.864Z,7.70
2019-04-02T02:06:11.085Z,7.70
2019-04-02T02:08:44.316Z,7.70
2019-04-02T02:11:16.111Z,7.60
2019-04-02T02:13:48.225Z,7.60
2019-04-02T02:16:20.034Z,7.60
2019-04-02T02:18:51.870Z,7.50
2019-04-02T02:21:23.687Z,7.50
2019-04-02T02:23:56.403Z,7.50
2019-04-02T02:26:28.211Z,7.50
2019-04-02T02:29:01.365Z,7.50
2019-04-02T02:31:35.953Z,7.40
2019-04-02T02:34:08.720Z,7.40
2019-04-02T02:36:40.950Z,7.40
2019-04-02T02:39:12.792Z,7.30
2019-04-02T02:42:12.940Z,7.30
2019-04-02T02:44:44.702Z,7.30
2019-04-02T02:47:16.513Z,7.20
2019-04-02T02:49:49.300Z,7.10
2019-04-02T02:52:21.592Z,7.10
2019-04-02T02:54:53.463Z,7.10
2019-04-02T02:57:25.547Z,7.10
2019-04-02T02:59:57.824Z,7.10
2019-04-02T03:02:29.713Z,7.10
2019-04-02T03:05:01.807Z,7.10
2019-04-02T03:07:34.245Z,7.10
2019-04-02T03:10:06.450Z,7.10
2019-04-02T03:12:38.771Z,7.10
2019-04-02T03:15:10.810Z,7.00
2019-04-02T03:17:43.692Z,6.90
2019-04-02T03:20:16.391Z,6.90
2019-04-02T03:22:48.404Z,7.00
2019-04-02T03:25:21.715Z,6.90
2019-04-02T03:27:54.411Z,6.80
2019-04-02T03:30:31.818Z,6.90
2019-04-02T03:33:03.926Z,6.80
2019-04-02T03:35:35.759Z,6.70
2019-04-02T03:38:07.855Z,6.70
2019-04-02T03:40:40.241Z,6.70
2019-04-02T03:43:12.516Z,6.70
2019-04-02T03:45:44.582Z,6.60
2019-04-02T03:48:16.741Z,6.60
2019-04-02T03:50:52.296Z,6.60
2019-04-02T03:53:23.865Z,6.60
2019-04-02T03:55:56.037Z,6.60
2019-04-02T03:58:27.839Z,6.60
2019-04-02T04:01:00.457Z,6.50
2019-04-02T04:03:32.847Z,6.50
2019-04-02T04:06:04.947Z,6.50
2019-04-02T04:08:38.993Z,6.50
2019-04-02T04:11:12.486Z,6.50
2019-04-02T04:13:45.207Z,6.40
2019-04-02T04:16:18.124Z,6.40
2019-04-02T04:18:50.621Z,6.30
2019-04-02T04:21:22.921Z,6.30
2019-04-02T04:23:56.219Z,6.30
2019-04-02T04:26:28.565Z,6.20
2019-04-02T04:29:00.449Z,6.10
2019-04-02T04:31:32.312Z,6.20
2019-04-02T04:34:04.130Z,6.20
2019-04-02T04:36:35.976Z,6.10
2019-04-02T04:39:12.481Z,6.10
2019-04-02T04:41:42.790Z,6.20
2019-04-02T04:44:21.040Z,6.20
2019-04-02T04:46:51.610Z,6.10
2019-04-02T04:49:23.407Z,6.10
2019-04-02T04:51:57.368Z,6.10
2019-04-02T04:54:28.855Z,6.10
2019-04-02T04:57:00.725Z,6.00
2019-04-02T04:59:33.067Z,6.00
2019-04-02T05:02:59.332Z,6.00
2019-04-02T05:05:31.128Z,6.00
2019-04-02T05:08:02.986Z,6.00
2019-04-02T05:10:34.784Z,5.90
2019-04-02T05:13:06.636Z,6.00
2019-04-02T05:15:38.449Z,6.00
2019-04-02T05:18:10.426Z,6.10
2019-04-02T05:20:42.245Z,6.10
2019-04-02T05:23:15.243Z,6.10
2019-04-02T05:25:47.349Z,6.10
2019-04-02T05:28:19.197Z,6.20
2019-04-02T05:30:51.168Z,6.20
2019-04-02T05:33:23.400Z,6.30
2019-04-02T05:35:55.207Z,6.20
2019-04-02T05:38:27.066Z,6.20
2019-04-02T05:40:58.871Z,6.30
2019-04-02T05:43:30.722Z,6.30
2019-04-02T05:46:02.698Z,6.50
2019-04-02T05:48:34.544Z,6.50
2019-04-02T05:51:06.625Z,6.60
2019-04-02T05:53:38.943Z,6.60
2019-04-02T05:56:10.730Z,6.70
2019-04-02T05:58:42.544Z,6.80
2019-04-02T06:01:15.941Z,6.80
2019-04-02T06:03:48.349Z,6.80
2019-04-02T06:06:20.793Z,6.90
2019-04-02T06:08:52.974Z,6.90
2019-04-02T06:11:24.867Z,7.00
2019-04-02T06:13:57.004Z,7.10
2019-04-02T06:16:29.155Z,7.30
2019-04-02T06:19:01.082Z,7.50
2019-04-02T06:21:33.799Z,7.50
2019-04-02T06:24:05.650Z,7.70
2019-04-02T06:26:37.728Z,7.80
2019-04-02T06:29:09.607Z,8.00
2019-04-02T06:31:41.412Z,8.20
2019-04-02T06:34:14.089Z,8.30
2019-04-02T06:36:46.273Z,8.60
2019-04-02T06:39:18.128Z,8.70
2019-04-02T06:41:50.485Z,8.80
2019-04-02T06:44:24.672Z,8.80
2019-04-02T06:46:56.298Z,8.90
2019-04-02T06:49:53.918Z,8.90
2019-04-02T06:52:27.485Z,9.00
2019-04-02T06:54:59.328Z,9.20
2019-04-02T06:57:31.136Z,9.20
2019-04-02T07:00:03.348Z,9.20
2019-04-02T07:02:35.145Z,9.30
2019-04-02T07:05:07.424Z,9.40
2019-04-02T07:07:39.529Z,9.50
2019-04-02T07:10:11.541Z,9.70
2019-04-02T07:12:44.616Z,9.90
2019-04-02T07:15:16.864Z,10.20
2019-04-02T07:17:48.677Z,10.60
2019-04-02T07:20:20.527Z,10.80
2019-04-02T07:22:52.344Z,11.10
2019-04-02T07:25:24.509Z,11.40
2019-04-02T07:27:56.358Z,11.60
2019-04-02T07:30:28.223Z,11.80
2019-04-02T07:33:00.273Z,12.00
2019-04-02T07:35:32.142Z,12.20
2019-04-02T07:38:06.048Z,12.30
2019-04-02T07:40:38.558Z,12.30
2019-04-02T07:43:10.828Z,12.50
2019-04-02T07:45:42.681Z,12.60
2019-04-02T07:48:15.716Z,12.70
2019-04-02T07:50:49.625Z,13.00
2019-04-02T07:53:21.301Z,13.20
2019-04-02T07:55:53.136Z,13.40
2019-04-02T07:58:25.002Z,13.60
2019-04-02T08:00:56.808Z,13.90
2019-04-02T08:03:28.984Z,13.90
2019-04-02T08:06:01.594Z,13.90
2019-04-02T08:08:33.853Z,14.10
2019-04-02T08:11:05.661Z,14.20
2019-04-02T08:13:37.515Z,14.30
2019-04-02T08:16:09.427Z,14.40
2019-04-02T08:18:42.461Z,14.40
2019-04-02T08:21:14.770Z,14.60
2019-04-02T08:23:46.603Z,14.70
2019-04-02T08:26:18.807Z,14.80
2019-04-02T08:28:52.420Z,15.00
2019-04-02T08:31:24.158Z,15.30
2019-04-02T08:33:56.020Z,15.50
2019-04-02T08:36:27.812Z,15.80
2019-04-02T08:38:59.845Z,15.90
2019-04-02T08:41:31.700Z,15.90
2019-04-02T08:44:03.833Z,15.90
2019-04-02T08:46:35.929Z,16.00
2019-04-02T08:49:07.790Z,16.00
2019-04-02T08:51:39.581Z,16.20
2019-04-02T08:54:11.460Z,16.50
2019-04-02T08:56:43.271Z,16.90
2019-04-02T08:59:15.404Z,17.30
2019-04-02T09:01:47.225Z,17.60
2019-04-02T09:04:19.505Z,17.70
2019-04-02T09:06:52.831Z,18.10
2019-04-02T09:09:24.687Z,18.40
2019-04-02T09:11:56.496Z,18.80
2019-04-02T09:14:28.328Z,19.20
2019-04-02T09:17:00.808Z,19.50
2019-04-02T09:19:32.660Z,19.70
2019-04-02T09:22:04.453Z,19.60
2019-04-02T09:24:36.289Z,19.60
2019-04-02T09:27:08.195Z,19.60
2019-04-02T09:29:40.011Z,19.70
2019-04-02T09:32:11.821Z,19.90
2019-04-02T09:34:43.658Z,20.10
2019-04-02T09:37:15.455Z,20.40
2019-04-02T09:39:47.276Z,21.00
2019-04-02T09:42:19.085Z,21.40
2019-04-02T09:44:50.904Z,21.60
2019-04-02T09:47:22.990Z,21.60
2019-04-02T09:49:54.809Z,21.60
2019-04-02T09:52:26.606Z,21.50
2019-04-02T09:54:58.455Z,21.50
2019-04-02T09:57:32.623Z,21.60
2019-04-02T10:00:06.010Z,22.20
2019-04-02T10:02:37.848Z,22.80
2019-04-02T10:05:10.037Z,23.60
2019-04-02T10:07:41.883Z,24.40
2019-04-02T10:10:14.257Z,24.70
2019-04-02T10:12:46.199Z,24.80
2019-04-02T10:15:19.602Z,24.80
2019-04-02T10:17:51.550Z,25.10
2019-04-02T10:20:23.354Z,25.40
2019-04-02T10:22:57.776Z,25.70
2019-04-02T10:25:28.988Z,26.20
2019-04-02T10:28:00.825Z,26.50
2019-04-02T10:30:32.705Z,26.80
2019-04-02T10:33:04.661Z,27.20
2019-04-02T10:35:36.467Z,27.40
2019-04-02T10:38:08.308Z,27.50
2019-04-02T10:40:40.178Z,27.40
2019-04-02T10:43:12.162Z,27.50
2019-04-02T10:45:43.954Z,27.50
2019-04-02T10:48:15.838Z,27.50
2019-04-02T10:50:47.632Z,27.40
2019-04-02T10:53:20.099Z,27.30
2019-04-02T10:55:52.535Z,27.30
2019-04-02T10:58:32.957Z,27.60
2019-04-02T11:00:57.876Z,27.80
2019-04-02T11:03:29.705Z,27.90
2019-04-02T11:06:01.823Z,27.90
2019-04-02T11:08:33.654Z,28.00
2019-04-02T11:11:05.570Z,27.90
2019-04-02T11:13:38.706Z,27.80
2019-04-02T11:16:10.502Z,27.80
2019-04-02T11:18:42.334Z,27.80
2019-04-02T11:21:14.329Z,27.10
2019-04-02T11:23:46.176Z,27.50
2019-04-02T11:26:18.510Z,28.10
2019-04-02T11:28:50.934Z,28.70
2019-04-02T11:31:24.543Z,29.10
2019-04-02T11:33:56.677Z,29.30
2019-04-02T11:36:28.976Z,29.70
2019-04-02T11:39:00.971Z,30.00
2019-04-02T11:41:32.861Z,30.30
2019-04-02T11:44:06.266Z,30.40
2019-04-02T11:46:38.981Z,30.10
2019-04-02T11:49:11.351Z,30.00
2019-04-02T11:51:43.158Z,30.30
2019-04-02T11:54:19.928Z,30.30
2019-04-02T11:56:49.891Z,30.50
2019-04-02T11:59:22.213Z,30.60
2019-04-02T12:01:54.156Z,30.90
2019-04-02T12:04:26.001Z,30.90
2019-04-02T12:06:57.832Z,30.80
2019-04-02T12:09:29.922Z,30.60
2019-04-02T12:12:03.341Z,30.80
2019-04-02T12:14:35.139Z,30.70
2019-04-02T12:17:07.850Z,30.80
2019-04-02T12:19:39.990Z,31.20
2019-04-02T12:22:12.247Z,31.50
2019-04-02T12:24:44.030Z,31.20
2019-04-02T12:27:16.212Z,31.10
2019-04-02T12:29:49.561Z,31.30
2019-04-02T12:32:21.480Z,32.10
2019-04-02T12:34:53.605Z,32.30
2019-04-02T12:37:26.665Z,32.80
2019-04-02T12:40:00.243Z,33.00
2019-04-02T12:42:32.006Z,33.00
2019-04-02T12:45:04.494Z,33.40
2019-04-02T12:47:36.883Z,33.70
2019-04-02T12:50:09.577Z,33.50
2019-04-02T12:52:42.369Z,33.40
2019-04-02T12:55:15.465Z,33.80
2019-04-02T13:05:39.499Z,35.50
2019-04-02T13:08:11.740Z,35.40
2019-04-02T13:10:43.936Z,35.40
2019-04-02T13:13:18.033Z,34.80
2019-04-02T13:15:49.512Z,34.50
2019-04-02T13:18:21.598Z,34.60
2019-04-02T13:20:53.491Z,34.00
2019-04-02T13:23:25.337Z,33.10
2019-04-02T13:25:58.250Z,32.90
2019-04-02T13:28:30.628Z,33.20
2019-04-02T13:31:03.542Z,33.40
2019-04-02T13:33:39.710Z,33.90
2019-04-02T13:36:11.513Z,34.20
2019-04-02T13:38:45.969Z,33.60
2019-04-02T13:41:17.526Z,33.60
2019-04-02T13:43:49.972Z,34.20
2019-04-02T13:46:21.864Z,34.40
2019-04-02T13:48:54.030Z,34.30
2019-04-02T13:51:25.868Z,34.20
2019-04-02T13:53:57.923Z,33.50
2019-04-02T13:56:29.940Z,34.10
2019-04-02T13:59:03.200Z,34.30
2019-04-02T14:01:36.136Z,34.40
2019-04-02T14:04:08.455Z,34.10
2019-04-02T14:06:40.253Z,34.50
2019-04-02T14:09:12.352Z,35.10
2019-04-02T14:11:44.418Z,35.30
2019-04-02T14:14:16.286Z,35.10
2019-04-02T14:16:48.097Z,35.30
2019-04-02T14:19:19.946Z,35.20
2019-04-02T14:21:51.746Z,34.70
2019-04-02T14:24:23.578Z,34.70
2019-04-02T14:26:55.817Z,34.00
2019-04-02T14:29:27.744Z,34.40
2019-04-02T14:31:59.536Z,34.30
2019-04-02T14:34:31.368Z,33.50
2019-04-02T14:37:03.159Z,32.80
2019-04-02T14:39:34.995Z,33.10
2019-04-02T14:42:06.889Z,33.00
2019-04-02T14:44:39.689Z,31.90
2019-04-02T14:47:11.938Z,32.40
2019-04-02T14:49:43.751Z,32.80
2019-04-02T14:52:15.549Z,33.30
2019-04-02T14:54:47.686Z,33.30
2019-04-02T14:57:19.487Z,33.50
2019-04-02T14:59:52.785Z,33.70
2019-04-02T15:02:26.477Z,34.00
2019-04-02T15:04:58.829Z,34.20
2019-04-02T15:07:30.960Z,33.80
2019-04-02T15:10:04.469Z,32.80
2019-04-02T15:12:36.643Z,32.50
2019-04-02T15:15:08.836Z,32.80
2019-04-02T15:17:40.668Z,32.70
2019-04-02T15:20:12.751Z,32.90
2019-04-02T15:22:44.545Z,32.10
2019-04-02T15:25:16.375Z,31.60
2019-04-02T15:27:50.565Z,31.00
2019-04-02T15:30:22.935Z,31.00
2019-04-02T15:32:54.733Z,30.30
2019-04-02T15:35:27.678Z,29.60
2019-04-02T15:37:59.539Z,29.40
2019-04-02T15:40:31.360Z,29.40
2019-04-02T15:43:03.467Z,28.90
2019-04-02T15:45:35.316Z,28.30
2019-04-02T15:48:07.416Z,28.10
2019-04-02T15:50:39.290Z,27.50
2019-04-02T15:53:11.418Z,27.00
2019-04-02T15:55:43.653Z,26.70
2019-04-02T15:58:18.223Z,26.60
2019-04-02T16:00:50.073Z,26.30
2019-04-02T16:03:21.863Z,26.10
2019-04-02T16:05:54.536Z,25.80
2019-04-02T16:08:26.340Z,25.20
2019-04-02T16:10:58.257Z,25.10
2019-04-02T16:13:30.050Z,25.10
2019-04-02T16:16:01.961Z,25.30
2019-04-02T16:18:33.885Z,25.40
2019-04-02T16:21:08.372Z,25.40
2019-04-02T16:23:40.389Z,25.50
2019-04-02T16:26:13.721Z,25.50
2019-04-02T16:28:45.758Z,25.40
2019-04-02T16:31:19.585Z,25.10
2019-04-02T16:33:53.034Z,25.70
2019-04-02T16:36:25.528Z,26.30
2019-04-02T16:38:57.675Z,26.70
2019-04-02T16:41:29.553Z,27.10
2019-04-02T16:44:01.715Z,27.50
2019-04-02T16:46:33.990Z,27.70
2019-04-02T16:49:05.788Z,27.60
2019-04-02T16:51:37.622Z,27.10
2019-04-02T16:54:09.409Z,26.70
2019-04-02T16:56:41.248Z,26.60
2019-04-02T16:59:13.036Z,26.60
2019-04-02T17:01:44.898Z,26.30
2019-04-02T17:04:17.042Z,26.10
2019-04-02T17:06:49.968Z,25.70
2019-04-02T17:09:21.948Z,25.20
2019-04-02T17:11:53.897Z,24.70
2019-04-02T17:14:25.701Z,24.30
2019-04-02T17:16:58.407Z,23.80
2019-04-02T17:19:30.193Z,23.50
2019-04-02T17:22:04.592Z,23.20
2019-04-02T17:24:35.892Z,23.00
2019-04-02T17:27:07.728Z,22.70
2019-04-02T17:29:39.555Z,22.60
2019-04-02T17:32:11.772Z,22.40
2019-04-02T17:34:44.259Z,22.10
2019-04-02T17:37:16.112Z,21.90
2019-04-02T17:39:50.453Z,21.60
2019-04-02T17:42:21.783Z,21.30
2019-04-02T17:44:54.061Z,21.10
2019-04-02T17:47:26.328Z,20.70
2019-04-02T17:50:00.662Z,20.50
2019-04-02T17:52:31.658Z,20.20
2019-04-02T17:55:03.846Z,20.00
2019-04-02T17:57:36.351Z,19.90
2019-04-02T18:00:09.214Z,19.70
2019-04-02T18:02:42.473Z,19.50
2019-04-02T18:05:14.581Z,19.30
2019-04-02T18:07:46.429Z,19.10
2019-04-02T18:10:18.215Z,18.80
2019-04-02T18:12:50.141Z,18.60
2019-04-02T18:15:21.938Z,18.50
2019-04-02T18:17:53.765Z,18.40
2019-04-02T18:20:25.948Z,18.30
2019-04-02T18:22:57.785Z,18.30
2019-04-02T18:25:30.263Z,18.20
2019-04-02T18:28:02.098Z,18.10
2019-04-02T18:30:34.203Z,18.10
2019-04-02T18:33:06.445Z,18.00
2019-04-02T18:35:38.245Z,17.90
2019-04-02T18:38:10.186Z,17.80
2019-04-02T18:40:42.368Z,17.50
2019-04-02T18:43:14.222Z,17.30
2019-04-02T18:45:46.075Z,17.20
2019-04-02T18:48:18.432Z,17.20
2019-04-02T18:50:51.022Z,17.20
2019-04-02T18:53:24.190Z,17.30
2019-04-02T18:55:56.283Z,17.20
2019-04-02T18:58:28.546Z,17.20
2019-04-02T19:01:00.637Z,17.20
2019-04-02T19:03:32.522Z,17.10
2019-04-02T19:06:04.332Z,17.00
2019-04-02T19:08:36.305Z,16.80
2019-04-02T19:11:11.623Z,16.60
2019-04-02T19:13:42.022Z,16.30
2019-04-02T19:16:13.911Z,16.40
2019-04-02T19:18:45.761Z,16.30
2019-04-02T19:21:17.570Z,16.30
2019-04-02T19:23:55.485Z,16.20
2019-04-02T19:26:23.063Z,16.20
2019-04-02T19:28:55.216Z,16.10
2019-04-02T19:31:27.236Z,16.20
2019-04-02T19:33:59.111Z,16.10
2019-04-02T19:36:31.550Z,15.80
2019-04-02T19:39:03.799Z,15.70
2019-04-02T19:41:35.621Z,15.80
2019-04-02T19:44:07.800Z,15.70
2019-04-02T19:46:40.774Z,15.60
2019-04-02T19:49:12.616Z,15.40
2019-04-02T19:51:45.377Z,15.30
2019-04-02T19:54:18.434Z,15.20
2019-04-02T19:56:54.079Z,15.20
2019-04-02T19:59:26.738Z,15.30
2019-04-02T20:01:59.966Z,15.30
2019-04-02T20:04:32.830Z,15.30
2019-04-02T20:07:06.325Z,15.30
2019-04-02T20:09:38.506Z,15.30
2019-04-02T20:12:10.341Z,15.20
2019-04-02T20:14:42.725Z,15.20
2019-04-02T20:17:14.541Z,15.00
2019-04-02T20:19:46.767Z,14.90
2019-04-02T20:22:18.579Z,14.80
2019-04-02T20:24:50.678Z,14.70
2019-04-02T20:27:22.788Z,14.70
2019-04-02T20:29:56.302Z,14.60
2019-04-02T20:32:28.616Z,14.60
2019-04-02T20:35:01.095Z,14.70
2019-04-02T20:37:33.322Z,14.70
2019-04-02T20:40:05.526Z,14.70
2019-04-02T20:42:37.337Z,14.70
2019-04-02T20:45:09.609Z,14.70
2019-04-02T20:47:41.480Z,14.60
2019-04-02T20:50:13.818Z,14.60
2019-04-02T20:52:45.635Z,14.60
2019-04-02T20:55:17.530Z,14.60
2019-04-02T20:57:49.390Z,14.60
2019-04-02T21:00:23.315Z,14.60
2019-04-02T21:03:01.708Z,14.60
2019-04-02T21:05:33.658Z,14.60
2019-04-02T21:08:05.769Z,14.50
2019-04-02T21:10:37.610Z,14.40
2019-04-02T21:13:15.053Z,14.40
2019-04-02T21:15:42.983Z,14.30
2019-04-02T21:18:15.366Z,14.30
2019-04-02T21:20:47.564Z,14.30
2019-04-02T21:23:19.476Z,14.30
2019-04-02T21:25:51.340Z,14.30
2019-04-02T21:28:24.172Z,14.30
2019-04-02T21:30:57.567Z,14.10
2019-04-02T21:33:34.700Z,14.00
2019-04-02T21:36:03.576Z,13.90
2019-04-02T21:38:35.683Z,13.80
2019-04-02T21:41:07.550Z,13.70
2019-04-02T21:43:39.376Z,13.60
2019-04-02T21:46:11.278Z,13.50
2019-04-02T21:48:43.780Z,13.50
2019-04-02T21:51:16.331Z,13.40
2019-04-02T21:53:48.160Z,13.30
2019-04-02T21:56:22.429Z,13.40
2019-04-02T21:58:56.376Z,13.40
2019-04-02T22:01:28.270Z,13.40
2019-04-02T22:04:00.250Z,13.40
2019-04-02T22:06:32.131Z,13.40
2019-04-02T22:09:05.651Z,13.40
2019-04-02T22:11:37.815Z,13.30
2019-04-02T22:14:12.096Z,13.30
2019-04-02T22:16:44.040Z,13.30
2019-04-02T22:19:15.970Z,13.40
2019-04-02T22:21:47.787Z,13.50
2019-04-02T22:24:20.841Z,13.70
2019-04-02T22:26:52.710Z,13.90
2019-04-02T22:29:24.856Z,14.10
2019-04-02T22:31:57.008Z,14.30
2019-04-02T22:34:28.863Z,14.40
2019-04-02T22:37:01.087Z,14.60
2019-04-02T22:39:33.012Z,14.70
2019-04-02T22:42:06.202Z,14.80
2019-04-02T22:44:40.546Z,14.90
2019-04-02T22:47:11.920Z,15.00
2019-04-02T22:49:43.767Z,15.10
2019-04-02T22:52:15.573Z,15.10
2019-04-02T22:54:47.415Z,15.20
2019-04-02T22:57:19.237Z,15.20
2019-04-02T22:59:51.077Z,15.20
2019-04-02T23:02:22.887Z,15.30
2019-04-02T23:04:54.802Z,15.30
2019-04-02T23:07:26.635Z,15.40
2019-04-02T23:09:58.675Z,15.30
2019-04-02T23:12:31.630Z,15.30
2019-04-02T23:15:05.117Z,15.30
2019-04-02T23:17:50.744Z,15.30
2019-04-02T23:20:13.434Z,15.30
2019-04-02T23:22:46.262Z,15.30
2019-04-02T23:25:18.259Z,15.20
2019-04-02T23:27:50.715Z,15.10
2019-04-02T23:30:24.947Z,14.90
2019-04-02T23:32:56.436Z,14.90
2019-04-02T23:35:28.302Z,14.80
2019-04-02T23:38:03.086Z,14.70
2019-04-02T23:40:34.172Z,14.60
2019-04-02T23:43:06.048Z,14.40
2019-04-02T23:45:37.887Z,14.40
2019-04-02T23:48:10.228Z,14.30
2019-04-02T23:50:42.335Z,14.20
2019-04-02T23:53:14.150Z,14.10
2019-04-02T23:55:45.997Z,14.00
2019-04-02T23:58:17.815Z,14.00
